Time;durP1;ratioP1;P1;durP2;ratioP2;P2;SDS_P1;SDS_P2;PMS_P1;PMS_P2;Temp;Humidity;BMP_temperature;BMP_pressure;BME280_temperature;BME280_humidity;BME280_pressure;Samples;Min_cycle;Max_cycle;Signal;HPM_P1;HPM_P2
2023/03/23 00:00:54;;;;;;;15.85;14.15;;;13.40;99.90;;;;;;5096771;28;20196;-75
2023/03/23 00:03:22;;;;;;;16.00;14.25;;;13.40;99.90;;;;;;5095719;28;20197;-74
2023/03/23 00:05:51;;;;;;;15.95;14.25;;;13.30;99.90;;;;;;5098411;28;20881;-73
2023/03/23 00:08:21;;;;;;;17.88;14.52;;;13.20;99.90;;;;;;5099642;28;20228;-74
2023/03/23 00:10:52;;;;;;;16.00;14.30;;;13.10;99.90;;;;;;5096144;28;20208;-75
2023/03/23 00:13:19;;;;;;;16.92;14.73;;;13.10;99.90;;;;;;5103913;28;20296;-74
2023/03/23 00:15:48;;;;;;;16.98;15.18;;;13.00;99.90;;;;;;5098031;28;20208;-75
2023/03/23 00:18:21;;;;;;;17.70;15.18;;;13.00;99.90;;;;;;5102389;28;20217;-74
2023/03/23 00:20:49;;;;;;;18.60;16.00;;;12.90;99.90;;;;;;5106008;28;20607;-74
2023/03/23 00:23:18;;;;;;;17.55;15.68;;;12.90;99.90;;;;;;5101902;28;20235;-74
2023/03/23 00:25:48;;;;;;;19.25;15.90;;;12.80;99.90;;;;;;5106290;28;20201;-75
2023/03/23 00:28:16;;;;;;;15.70;14.00;;;12.70;99.90;;;;;;5102067;28;20765;-74
2023/03/23 00:30:44;;;;;;;18.75;16.75;;;12.70;99.90;;;;;;5101862;28;20251;-75
2023/03/23 00:33:13;;;;;;;17.77;15.90;;;12.60;99.90;;;;;;5100920;28;20205;-74
2023/03/23 00:35:41;;;;;;;18.50;16.42;;;12.60;99.90;;;;;;5100591;28;20675;-74
2023/03/23 00:38:09;;;;;;;17.33;15.00;;;12.60;99.90;;;;;;5107324;28;20224;-75
2023/03/23 00:40:36;;;;;;;15.40;13.27;;;12.50;99.90;;;;;;5112331;28;20197;-74
2023/03/23 00:43:05;;;;;;;16.55;14.85;;;12.50;99.90;;;;;;5099116;28;20221;-74
2023/03/23 00:45:34;;;;;;;16.80;15.00;;;12.50;99.90;;;;;;5100995;28;20201;-74
2023/03/23 00:48:04;;;;;;;20.45;17.20;;;12.50;99.90;;;;;;5100216;28;20729;-72
2023/03/23 00:50:31;;;;;;;17.50;15.32;;;12.50;99.90;;;;;;5099679;28;20225;-74
2023/03/23 00:52:58;;;;;;;16.35;14.65;;;12.50;99.90;;;;;;5100713;28;20394;-74
2023/03/23 00:55:25;;;;;;;16.58;14.88;;;12.50;99.90;;;;;;5101529;28;20228;-75
2023/03/23 00:57:53;;;;;;;15.77;13.90;;;12.60;99.90;;;;;;5100465;28;20229;-74
2023/03/23 01:00:22;;;;;;;23.50;19.92;;;12.60;99.90;;;;;;5099830;28;20261;-74
2023/03/23 01:02:55;;;;;;;20.48;18.25;;;12.50;99.90;;;;;;5101975;28;20621;-74
2023/03/23 01:05:22;;;;;;;20.05;17.92;;;12.40;99.90;;;;;;5098653;28;20314;-74
2023/03/23 01:07:49;;;;;;;23.70;19.38;;;12.40;99.90;;;;;;5102777;28;20267;-75
2023/03/23 01:10:17;;;;;;;20.27;18.05;;;12.30;99.90;;;;;;5100532;28;20206;-75
2023/03/23 01:12:45;;;;;;;18.90;15.50;;;12.30;99.90;;;;;;5099955;28;20206;-74
2023/03/23 01:15:17;;;;;;;18.92;16.83;;;12.30;99.90;;;;;;5099562;28;20205;-74
2023/03/23 01:17:46;;;;;;;17.65;15.75;;;12.30;99.90;;;;;;5098464;28;20224;-74
2023/03/23 01:20:15;;;;;;;16.60;14.90;;;12.30;99.90;;;;;;5099798;28;20201;-74
2023/03/23 01:22:43;;;;;;;18.02;15.35;;;12.30;99.90;;;;;;5098472;28;20236;-75
2023/03/23 01:25:12;;;;;;;18.77;15.52;;;12.40;99.90;;;;;;5099346;28;20205;-74
2023/03/23 01:27:40;;;;;;;16.48;14.57;;;12.40;99.90;;;;;;5097392;28;20656;-74
2023/03/23 01:30:09;;;;;;;18.35;15.77;;;12.40;99.90;;;;;;5097534;28;20306;-74
2023/03/23 01:32:36;;;;;;;16.60;14.80;;;12.40;99.90;;;;;;5098504;28;20240;-74
2023/03/23 01:35:05;;;;;;;19.17;16.35;;;12.40;99.90;;;;;;5098139;28;20198;-73
2023/03/23 01:37:32;;;;;;;18.15;15.60;;;12.40;99.90;;;;;;5114019;28;20196;-75
2023/03/23 01:40:00;;;;;;;17.73;15.32;;;12.30;99.90;;;;;;5101560;28;20754;-74
2023/03/23 01:42:31;;;;;;;16.63;14.82;;;12.30;99.90;;;;;;5098152;28;20208;-73
2023/03/23 01:45:23;;;;;;;17.05;14.55;;;12.30;99.90;;;;;;5100744;28;20197;-74
2023/03/23 01:47:52;;;;;;;17.65;15.05;;;12.30;99.90;;;;;;5090750;28;20240;-74
2023/03/23 01:50:23;;;;;;;16.33;14.60;;;12.20;99.90;;;;;;5098735;28;20617;-73
2023/03/23 01:52:52;;;;;;;15.55;13.95;;;12.20;99.90;;;;;;5098140;28;20201;-75
2023/03/23 01:55:20;;;;;;;17.25;14.95;;;12.10;99.90;;;;;;5098101;28;20197;-74
2023/03/23 01:57:48;;;;;;;16.92;14.60;;;12.20;99.90;;;;;;5098618;28;20197;-74
2023/03/23 02:00:17;;;;;;;17.25;14.73;;;12.10;99.90;;;;;;5100702;28;20263;-76
2023/03/23 02:02:46;;;;;;;20.73;15.18;;;12.10;99.90;;;;;;5100439;28;20205;-74
2023/03/23 02:05:24;;;;;;;17.48;15.68;;;12.10;99.90;;;;;;5099426;28;20201;-75
2023/03/23 02:07:52;;;;;;;17.55;15.73;;;12.10;99.90;;;;;;5100696;28;20209;-74
2023/03/23 02:10:19;;;;;;;17.02;15.10;;;12.00;99.90;;;;;;5101250;28;20302;-74
2023/03/23 02:12:46;;;;;;;19.52;15.63;;;12.00;99.90;;;;;;5098765;28;20205;-74
2023/03/23 02:15:13;;;;;;;17.63;15.73;;;12.00;99.90;;;;;;5098996;28;20200;-74
2023/03/23 02:17:46;;;;;;;17.83;16.02;;;12.00;99.90;;;;;;5099663;28;20768;-74
2023/03/23 02:20:49;;;;;;;18.33;16.50;;;11.90;99.90;;;;;;5096444;28;20202;-73
2023/03/23 02:23:35;;;;;;;18.25;16.35;;;11.90;99.90;;;;;;5096417;28;20285;-74
2023/03/23 02:26:20;;;;;;;17.98;15.90;;;11.80;99.90;;;;;;5095419;28;20205;-74
2023/03/23 02:29:13;;;;;;;17.75;15.15;;;11.80;99.90;;;;;;5097086;28;20282;-74
2023/03/23 02:32:05;;;;;;;18.63;16.13;;;11.70;99.90;;;;;;5097487;28;20693;-74
2023/03/23 02:34:40;;;;;;;17.45;15.32;;;11.70;99.90;;;;;;5098624;28;20734;-75
2023/03/23 02:37:13;;;;;;;17.48;15.68;;;11.70;99.90;;;;;;5116166;27;20275;-73
2023/03/23 02:39:46;;;;;;;19.02;16.77;;;11.70;99.90;;;;;;5096454;28;20614;-74
2023/03/23 02:42:18;;;;;;;19.77;16.27;;;11.70;99.90;;;;;;5101637;28;20227;-74
2023/03/23 02:44:47;;;;;;;21.10;17.00;;;11.70;99.90;;;;;;5097302;28;20246;-74
2023/03/23 02:47:20;;;;;;;17.70;15.90;;;11.70;99.90;;;;;;5101641;28;20309;-74
2023/03/23 02:49:51;;;;;;;16.20;14.55;;;11.70;99.90;;;;;;5114920;28;20209;-75
2023/03/23 02:52:22;;;;;;;18.58;15.68;;;11.70;99.90;;;;;;5120438;28;20185;-74
2023/03/23 02:54:52;;;;;;;16.35;14.65;;;11.70;99.90;;;;;;5117735;28;20198;-74
2023/03/23 02:57:20;;;;;;;18.00;16.10;;;11.70;99.90;;;;;;5092418;28;20220;-74
2023/03/23 02:59:47;;;;;;;17.48;15.45;;;11.70;99.90;;;;;;5090730;28;21139;-75
2023/03/23 03:02:17;;;;;;;18.33;16.38;;;11.70;99.90;;;;;;5089266;28;20205;-75
2023/03/23 03:04:55;;;;;;;15.35;13.77;;;11.70;99.90;;;;;;5094715;28;20200;-73
2023/03/23 03:07:36;;;;;;;15.10;13.50;;;11.70;99.90;;;;;;5094981;28;20291;-74
2023/03/23 03:10:07;;;;;;;16.27;14.38;;;11.70;99.90;;;;;;5100036;28;20231;-74
2023/03/23 03:12:42;;;;;;;17.50;15.48;;;11.70;99.90;;;;;;5094036;28;20288;-74
2023/03/23 03:15:22;;;;;;;17.15;15.35;;;11.70;99.90;;;;;;5098453;28;20224;-73
2023/03/23 03:17:56;;;;;;;16.85;14.35;;;11.70;99.90;;;;;;5095572;28;20224;-74
2023/03/23 03:20:27;;;;;;;18.30;16.27;;;11.70;99.90;;;;;;5094070;28;20220;-74
2023/03/23 03:22:56;;;;;;;18.83;16.73;;;11.70;99.90;;;;;;5095683;28;20663;-74
2023/03/23 03:25:24;;;;;;;17.77;15.80;;;11.60;99.90;;;;;;5095611;28;20606;-74
2023/03/23 03:27:52;;;;;;;19.00;16.85;;;11.50;99.90;;;;;;5096443;28;20273;-74
2023/03/23 03:30:21;;;;;;;18.75;16.75;;;11.50;99.90;;;;;;5093242;28;20205;-74
2023/03/23 03:32:53;;;;;;;18.98;16.20;;;11.50;99.90;;;;;;5098880;28;20469;-75
2023/03/23 03:35:21;;;;;;;17.38;15.57;;;11.40;99.90;;;;;;5111133;28;20193;-73
2023/03/23 03:37:50;;;;;;;19.70;16.17;;;11.50;99.90;;;;;;5097648;28;20201;-75
2023/03/23 03:40:20;;;;;;;17.65;15.80;;;11.40;99.90;;;;;;5095219;28;20215;-74
2023/03/23 03:42:47;;;;;;;18.58;15.82;;;11.50;99.90;;;;;;5095849;28;20713;-74
2023/03/23 03:45:17;;;;;;;18.60;16.00;;;11.40;99.90;;;;;;5096972;28;20229;-74
2023/03/23 03:47:44;;;;;;;17.65;15.80;;;11.40;99.90;;;;;;5100365;28;20281;-74
2023/03/23 03:50:11;;;;;;;18.20;16.30;;;11.40;99.90;;;;;;5097836;28;20259;-73
2023/03/23 03:52:39;;;;;;;18.00;16.08;;;11.30;99.90;;;;;;5100228;28;20209;-75
2023/03/23 03:55:10;;;;;;;18.27;16.48;;;11.30;99.90;;;;;;5101596;28;20209;-75
2023/03/23 03:57:37;;;;;;;16.83;15.10;;;11.30;99.90;;;;;;5102911;28;20886;-74
2023/03/23 04:00:13;;;;;;;16.08;14.43;;;11.20;99.90;;;;;;5098930;28;20275;-75
2023/03/23 04:02:41;;;;;;;16.17;14.48;;;11.20;99.90;;;;;;5098792;28;20205;-73
2023/03/23 04:05:09;;;;;;;17.88;15.77;;;11.20;99.90;;;;;;5105417;28;20246;-74
2023/03/23 04:07:39;;;;;;;19.17;16.20;;;11.10;99.90;;;;;;5099229;28;20220;-74
2023/03/23 04:10:09;;;;;;;18.25;16.35;;;11.10;99.90;;;;;;5098317;28;20548;-74
2023/03/23 04:12:36;;;;;;;17.88;15.80;;;11.10;99.90;;;;;;5099688;28;20288;-74
2023/03/23 04:15:04;;;;;;;19.00;16.45;;;11.10;99.90;;;;;;5102146;28;20210;-75
2023/03/23 04:17:30;;;;;;;18.73;16.77;;;11.10;99.90;;;;;;5104732;28;20221;-75
2023/03/23 04:19:58;;;;;;;18.65;16.65;;;11.10;99.90;;;;;;5100240;28;20221;-74
2023/03/23 04:22:29;;;;;;;19.48;17.48;;;11.10;99.90;;;;;;5100302;28;20197;-74
2023/03/23 04:24:58;;;;;;;18.67;16.15;;;11.10;99.90;;;;;;5101880;28;20573;-74
2023/03/23 04:27:27;;;;;;;20.38;16.85;;;11.10;99.90;;;;;;5102158;28;21846;-74
2023/03/23 04:29:56;;;;;;;19.33;17.27;;;11.10;99.90;;;;;;5098430;28;20327;-74
2023/03/23 04:32:24;;;;;;;19.25;17.23;;;11.10;99.90;;;;;;5110175;28;20194;-74
2023/03/23 04:34:51;;;;;;;20.23;18.05;;;11.10;99.90;;;;;;5103401;28;20296;-74
2023/03/23 04:37:18;;;;;;;19.60;17.05;;;11.20;99.90;;;;;;5103496;28;20686;-74
2023/03/23 04:39:46;;;;;;;20.40;18.17;;;11.10;99.90;;;;;;5097825;28;20635;-73
2023/03/23 04:42:13;;;;;;;19.67;17.15;;;11.10;99.90;;;;;;5103825;28;20207;-74
2023/03/23 04:44:43;;;;;;;20.08;17.88;;;11.00;99.90;;;;;;5102319;28;20246;-74
2023/03/23 04:47:10;;;;;;;20.02;17.92;;;11.00;99.90;;;;;;5099930;28;20197;-74
2023/03/23 04:49:37;;;;;;;19.85;17.75;;;10.90;99.90;;;;;;5101799;27;20225;-74
2023/03/23 04:52:05;;;;;;;20.52;18.42;;;11.00;99.90;;;;;;5106839;28;20201;-74
2023/03/23 04:54:32;;;;;;;19.35;15.88;;;10.90;99.90;;;;;;5101070;28;20201;-73
2023/03/23 04:56:59;;;;;;;19.33;16.63;;;10.90;99.90;;;;;;5102296;28;20229;-74
2023/03/23 04:59:27;;;;;;;19.23;16.80;;;10.90;99.90;;;;;;5099785;28;20221;-74
2023/03/23 05:01:56;;;;;;;19.48;17.40;;;10.90;99.90;;;;;;5102618;28;20300;-74
2023/03/23 05:04:24;;;;;;;18.70;16.70;;;10.90;99.90;;;;;;5096795;28;20201;-74
2023/03/23 05:06:52;;;;;;;19.40;17.08;;;10.90;99.90;;;;;;5103633;28;20201;-74
2023/03/23 05:09:20;;;;;;;19.55;17.25;;;10.90;99.90;;;;;;5097569;28;20244;-74
2023/03/23 05:11:47;;;;;;;18.30;16.35;;;10.90;99.90;;;;;;5102446;28;20201;-74
2023/03/23 05:14:14;;;;;;;17.80;15.90;;;10.90;99.90;;;;;;5099183;28;20656;-74
2023/03/23 05:16:41;;;;;;;18.00;15.93;;;10.90;99.90;;;;;;5104568;28;20501;-75
2023/03/23 05:19:09;;;;;;;20.73;17.23;;;10.90;99.90;;;;;;5094955;28;20248;-74
2023/03/23 05:21:36;;;;;;;19.00;17.02;;;10.80;99.90;;;;;;5096455;28;21620;-74
2023/03/23 05:24:04;;;;;;;18.75;16.80;;;10.80;99.90;;;;;;5099480;28;20201;-74
2023/03/23 05:26:32;;;;;;;18.95;16.65;;;10.90;99.90;;;;;;5098343;28;20995;-74
2023/03/23 05:28:59;;;;;;;19.63;17.58;;;10.80;99.90;;;;;;5097107;28;20392;-74
2023/03/23 05:31:26;;;;;;;19.48;17.48;;;10.80;99.90;;;;;;5115476;28;20186;-74
2023/03/23 05:33:53;;;;;;;19.83;17.73;;;10.80;99.90;;;;;;5101967;28;20283;-75
2023/03/23 05:36:22;;;;;;;17.63;15.57;;;10.80;99.90;;;;;;5096847;28;20714;-74
2023/03/23 05:38:51;;;;;;;18.02;16.15;;;10.90;99.90;;;;;;5101187;27;20217;-75
2023/03/23 05:41:18;;;;;;;21.33;17.95;;;10.90;99.90;;;;;;5102490;28;20262;-74
2023/03/23 05:43:45;;;;;;;20.20;17.65;;;10.90;99.90;;;;;;5099013;28;20256;-74
2023/03/23 05:46:12;;;;;;;18.35;16.45;;;10.90;99.90;;;;;;5095166;28;20676;-75
2023/03/23 05:48:39;;;;;;;20.08;17.98;;;10.90;99.90;;;;;;5097541;28;20248;-74
2023/03/23 05:51:06;;;;;;;20.90;17.52;;;10.90;99.90;;;;;;5099866;28;20201;-74
2023/03/23 05:53:35;;;;;;;22.23;19.13;;;11.00;99.90;;;;;;5094453;28;20197;-74
2023/03/23 05:56:03;;;;;;;20.48;18.27;;;11.00;99.90;;;;;;5097695;28;20709;-74
2023/03/23 05:58:31;;;;;;;20.27;18.13;;;11.10;99.90;;;;;;5100083;28;20308;-74
2023/03/23 06:00:58;;;;;;;20.83;17.40;;;11.10;99.90;;;;;;5096896;28;20212;-74
2023/03/23 06:03:25;;;;;;;20.27;18.17;;;11.10;99.90;;;;;;5120736;28;20538;-75
2023/03/23 06:05:52;;;;;;;19.25;16.55;;;11.20;99.90;;;;;;5126276;28;20185;-75
2023/03/23 06:08:19;;;;;;;18.33;16.42;;;11.30;99.90;;;;;;5116308;28;20229;-74
2023/03/23 06:10:48;;;;;;;19.10;16.55;;;11.30;99.90;;;;;;5099099;28;20205;-75
2023/03/23 06:13:15;;;;;;;19.02;17.02;;;11.40;99.90;;;;;;5104596;28;20198;-74
2023/03/23 06:15:42;;;;;;;19.90;17.67;;;11.40;99.90;;;;;;5100210;28;20290;-74
2023/03/23 06:18:09;;;;;;;20.55;18.33;;;11.50;99.90;;;;;;5101973;28;20213;-73
2023/03/23 06:20:37;;;;;;;18.98;16.98;;;11.50;99.90;;;;;;5102441;28;20656;-73
2023/03/23 06:23:04;;;;;;;21.40;18.17;;;11.60;99.90;;;;;;5099405;28;20224;-75
2023/03/23 06:25:31;;;;;;;21.65;19.38;;;11.80;99.90;;;;;;5096600;28;20257;-73
2023/03/23 06:28:00;;;;;;;19.88;17.80;;;12.00;99.90;;;;;;5104702;28;20257;-74
2023/03/23 06:30:28;;;;;;;21.45;19.15;;;12.30;99.90;;;;;;5115135;28;20193;-74
2023/03/23 06:32:55;;;;;;;24.23;19.38;;;12.50;99.90;;;;;;5101397;28;20233;-74
2023/03/23 06:35:23;;;;;;;24.48;21.63;;;12.50;99.90;;;;;;5098038;28;20205;-74
2023/03/23 06:37:51;;;;;;;22.60;20.17;;;12.60;99.90;;;;;;5101701;28;20202;-74
2023/03/23 06:40:19;;;;;;;22.77;20.35;;;12.90;99.90;;;;;;5100375;28;20282;-74
2023/03/23 06:42:46;;;;;;;22.90;20.50;;;13.20;99.90;;;;;;5101668;28;20209;-74
2023/03/23 06:45:15;;;;;;;27.13;21.98;;;13.40;99.90;;;;;;5102295;28;20224;-74
2023/03/23 06:47:42;;;;;;;23.58;21.05;;;13.70;99.90;;;;;;5102581;28;20244;-74
2023/03/23 06:50:10;;;;;;;24.40;21.90;;;13.90;99.90;;;;;;5098797;28;20216;-74
2023/03/23 06:52:37;;;;;;;26.80;22.85;;;13.80;99.90;;;;;;5103053;28;20319;-74
2023/03/23 06:55:04;;;;;;;28.25;22.80;;;13.80;99.90;;;;;;5099106;28;20255;-74
2023/03/23 06:57:31;;;;;;;24.25;21.73;;;13.90;99.90;;;;;;5098443;28;20193;-74
2023/03/23 06:59:58;;;;;;;23.67;21.17;;;14.00;99.90;;;;;;5094509;28;20243;-74
2023/03/23 07:02:26;;;;;;;22.95;20.55;;;14.10;99.90;;;;;;5092815;28;20205;-73
2023/03/23 07:04:54;;;;;;;25.10;22.40;;;14.10;99.90;;;;;;5100121;28;20201;-74
2023/03/23 07:07:21;;;;;;;23.92;21.48;;;14.10;99.90;;;;;;5101517;28;20197;-74
2023/03/23 07:09:48;;;;;;;24.65;21.30;;;14.20;99.90;;;;;;5093427;28;20217;-74
2023/03/23 07:12:15;;;;;;;24.42;20.45;;;14.20;99.90;;;;;;5092845;28;20283;-74
2023/03/23 07:14:42;;;;;;;23.73;21.23;;;14.20;99.90;;;;;;5093180;28;20208;-73
2023/03/23 07:17:09;;;;;;;23.08;20.02;;;14.20;99.90;;;;;;5094121;28;20208;-73
2023/03/23 07:19:37;;;;;;;22.00;19.42;;;14.10;99.90;;;;;;5095694;28;21102;-73
2023/03/23 07:22:07;;;;;;;23.70;20.15;;;14.00;99.90;;;;;;5099245;28;20254;-73
2023/03/23 07:24:34;;;;;;;21.88;19.58;;;13.90;99.90;;;;;;5099150;28;20230;-74
2023/03/23 07:27:01;;;;;;;23.60;21.05;;;13.60;99.90;;;;;;5110337;27;20185;-74
2023/03/23 07:29:28;;;;;;;23.75;21.30;;;13.50;99.90;;;;;;5112672;28;20255;-75
2023/03/23 07:31:55;;;;;;;23.45;20.95;;;13.40;99.90;;;;;;5100283;28;20200;-75
2023/03/23 07:34:22;;;;;;;23.65;21.15;;;13.30;99.90;;;;;;5101028;28;20233;-72
2023/03/23 07:36:50;;;;;;;21.60;19.27;;;13.20;99.90;;;;;;5100371;28;20229;-74
2023/03/23 07:39:17;;;;;;;21.65;19.10;;;13.10;99.90;;;;;;5099382;28;20823;-74
2023/03/23 07:41:44;;;;;;;20.50;18.50;;;13.10;99.90;;;;;;5096862;28;20274;-74
2023/03/23 07:44:11;;;;;;;20.27;18.27;;;13.00;99.90;;;;;;5100935;28;20232;-72
2023/03/23 07:46:38;;;;;;;21.40;19.10;;;13.00;99.90;;;;;;5104511;28;20261;-78
2023/03/23 07:49:05;;;;;;;22.17;19.85;;;13.10;99.90;;;;;;5091645;28;20299;-73
2023/03/23 07:51:33;;;;;;;24.88;22.27;;;13.10;99.90;;;;;;5093120;28;20248;-73
2023/03/23 07:54:02;;;;;;;23.50;21.10;;;13.70;99.90;;;;;;5095564;28;20251;-73
2023/03/23 07:56:30;;;;;;;25.92;23.17;;;14.40;99.90;;;;;;5096176;28;20202;-73
2023/03/23 07:58:57;;;;;;;23.45;21.05;;;15.00;99.90;;;;;;5100531;28;20274;-73
2023/03/23 08:01:24;;;;;;;26.77;23.90;;;15.80;99.90;;;;;;5095501;28;20310;-73
2023/03/23 08:03:51;;;;;;;26.50;23.60;;;16.40;99.90;;;;;;5096986;28;20381;-74
2023/03/23 08:06:19;;;;;;;25.67;23.02;;;16.70;99.90;;;;;;5098638;27;20208;-73
2023/03/23 08:08:46;;;;;;;26.35;22.20;;;16.40;99.90;;;;;;5101032;28;20232;-75
2023/03/23 08:11:15;;;;;;;24.38;21.88;;;15.80;99.90;;;;;;5101793;28;20177;-74
2023/03/23 08:13:42;;;;;;;23.80;21.20;;;15.40;99.90;;;;;;5098741;28;20255;-73
2023/03/23 08:16:09;;;;;;;23.63;21.23;;;15.20;99.90;;;;;;5104262;28;20317;-73
2023/03/23 08:18:37;;;;;;;22.08;19.73;;;15.00;99.90;;;;;;5099604;28;20685;-74
2023/03/23 08:21:05;;;;;;;21.60;19.45;;;14.90;99.90;;;;;;5094836;28;20201;-75
2023/03/23 08:23:33;;;;;;;22.75;20.35;;;14.90;99.90;;;;;;5092382;27;20197;-74
2023/03/23 08:26:00;;;;;;;22.98;20.60;;;14.90;99.90;;;;;;5106351;28;20265;-74
2023/03/23 08:28:29;;;;;;;23.55;20.95;;;14.90;99.90;;;;;;5095446;28;20213;-74
2023/03/23 08:30:56;;;;;;;22.80;20.58;;;14.80;99.90;;;;;;5092349;28;20201;-74
2023/03/23 08:33:23;;;;;;;24.08;21.58;;;14.90;99.90;;;;;;5094318;28;20207;-73
2023/03/23 08:35:56;;;;;;;21.67;19.38;;;15.10;99.90;;;;;;5091558;28;20228;-73
2023/03/23 08:38:23;;;;;;;21.48;19.17;;;15.00;99.90;;;;;;5097139;27;20213;-74
2023/03/23 08:40:50;;;;;;;22.38;20.08;;;15.10;99.90;;;;;;5091706;28;20199;-73
2023/03/23 08:43:17;;;;;;;22.33;20.10;;;15.20;99.90;;;;;;5100402;28;20693;-71
2023/03/23 08:45:46;;;;;;;21.77;19.45;;;15.30;99.90;;;;;;5092887;28;20209;-73
2023/03/23 08:48:13;;;;;;;25.20;22.58;;;15.50;99.90;;;;;;5089902;28;20281;-73
2023/03/23 08:50:40;;;;;;;24.40;21.90;;;15.70;99.90;;;;;;5096029;28;20237;-72
2023/03/23 08:53:08;;;;;;;24.83;21.80;;;15.70;99.90;;;;;;5096359;28;20330;-73
2023/03/23 08:55:35;;;;;;;25.08;22.55;;;15.70;99.90;;;;;;5092873;28;20370;-73
2023/03/23 08:58:03;;;;;;;28.38;25.35;;;15.90;99.90;;;;;;5092234;27;20198;-74
2023/03/23 09:00:30;;;;;;;27.33;24.40;;;16.10;99.90;;;;;;5092227;28;20244;-75
2023/03/23 09:02:59;;;;;;;25.50;22.80;;;16.20;99.90;;;;;;5093308;28;20197;-75
2023/03/23 09:05:28;;;;;;;25.35;22.73;;;16.10;99.90;;;;;;5093570;28;20196;-75
2023/03/23 09:07:59;;;;;;;24.95;22.45;;;16.30;99.90;;;;;;5092696;28;20205;-75
2023/03/23 09:10:27;;;;;;;26.33;22.88;;;16.20;99.90;;;;;;5092733;28;20224;-74
2023/03/23 09:12:55;;;;;;;25.67;22.90;;;15.90;99.90;;;;;;5097639;28;20262;-74
2023/03/23 09:15:23;;;;;;;28.27;25.38;;;15.60;99.90;;;;;;5098512;28;20220;-75
2023/03/23 09:17:53;;;;;;;28.75;25.75;;;15.90;99.90;;;;;;5096955;28;20263;-74
2023/03/23 09:20:24;;;;;;;28.23;24.77;;;16.50;99.90;;;;;;5098998;28;20204;-74
2023/03/23 09:22:53;;;;;;;27.48;24.58;;;17.10;99.90;;;;;;5094843;28;20205;-74
2023/03/23 09:25:25;;;;;;;25.38;22.75;;;17.20;99.90;;;;;;5111812;27;20197;-72
2023/03/23 09:27:56;;;;;;;28.27;25.27;;;17.00;99.90;;;;;;5111801;28;20205;-74
2023/03/23 09:30:24;;;;;;;24.85;21.75;;;16.90;99.90;;;;;;5118621;28;20224;-73
2023/03/23 09:32:51;;;;;;;22.20;19.85;;;16.80;99.90;;;;;;5112492;28;20251;-76
2023/03/23 09:35:21;;;;;;;25.30;21.55;;;17.00;99.90;;;;;;5098393;28;20193;-75
2023/03/23 09:37:51;;;;;;;23.85;21.40;;;17.10;99.90;;;;;;5089641;28;20201;-73
2023/03/23 09:40:19;;;;;;;25.60;23.00;;;17.40;99.90;;;;;;5095678;28;20262;-75
2023/03/23 09:43:15;;;;;;;26.42;23.73;;;17.60;99.90;;;;;;5094242;28;20220;-76
2023/03/23 09:45:52;;;;;;;24.55;22.05;;;17.70;99.90;;;;;;5095049;28;20196;-73
2023/03/23 09:48:39;;;;;;;25.17;22.38;;;17.60;99.90;;;;;;5095402;28;20283;-74
2023/03/23 09:51:13;;;;;;;24.90;22.27;;;17.70;99.90;;;;;;5092621;28;20278;-74
2023/03/23 09:53:45;;;;;;;24.58;22.08;;;17.80;99.90;;;;;;5095982;28;20258;-74
2023/03/23 09:56:15;;;;;;;30.08;23.50;;;18.20;99.90;;;;;;5093879;28;20239;-75
2023/03/23 09:58:48;;;;;;;25.65;22.85;;;18.50;99.90;;;;;;5095025;28;20256;-74
2023/03/23 10:01:20;;;;;;;25.40;22.80;;;18.50;99.90;;;;;;5092378;28;20229;-75
2023/03/23 10:03:47;;;;;;;24.38;21.23;;;18.50;99.90;;;;;;5089333;28;20205;-76
2023/03/23 10:06:18;;;;;;;25.13;22.55;;;18.40;99.90;;;;;;5093907;28;20918;-75
2023/03/23 10:08:51;;;;;;;26.40;23.65;;;18.40;99.90;;;;;;5091127;28;20247;-74
2023/03/23 10:11:25;;;;;;;23.67;21.05;;;18.30;99.90;;;;;;5094021;28;20212;-76
2023/03/23 10:14:17;;;;;;;23.77;21.38;;;18.10;99.90;;;;;;5095117;28;20252;-76
2023/03/23 10:16:55;;;;;;;24.08;21.77;;;18.00;99.90;;;;;;5097887;28;20202;-76
2023/03/23 10:19:30;;;;;;;21.58;19.48;;;18.00;99.90;;;;;;5096670;28;20217;-75
2023/03/23 10:22:02;;;;;;;23.08;20.67;;;17.80;99.90;;;;;;5106160;28;20252;-77
2023/03/23 10:24:37;;;;;;;24.52;21.92;;;17.90;99.90;;;;;;5102426;28;20193;-76
2023/03/23 10:27:14;;;;;;;26.00;23.35;;;18.40;99.90;;;;;;5097351;28;20200;-76
2023/03/23 10:29:46;;;;;;;23.10;20.60;;;18.80;99.90;;;;;;5097266;28;20216;-75
2023/03/23 10:32:16;;;;;;;24.63;22.02;;;19.00;99.90;;;;;;5096058;28;20201;-75
2023/03/23 10:34:48;;;;;;;27.33;24.38;;;19.20;99.90;;;;;;5096596;28;20196;-75
2023/03/23 10:37:21;;;;;;;27.42;23.25;;;19.40;99.90;;;;;;5097916;28;20327;-76
2023/03/23 10:39:54;;;;;;;25.50;22.92;;;19.60;99.90;;;;;;5094139;28;20205;-76
2023/03/23 10:42:31;;;;;;;23.20;20.73;;;20.10;99.90;;;;;;5096038;28;20287;-76
2023/03/23 10:45:00;;;;;;;22.98;20.48;;;20.60;99.90;;;;;;5095040;28;20961;-76
2023/03/23 10:47:28;;;;;;;26.40;23.58;;;20.80;99.90;;;;;;5099054;28;20197;-76
2023/03/23 10:49:58;;;;;;;28.42;25.52;;;20.50;99.90;;;;;;5097428;28;20294;-76
2023/03/23 10:52:34;;;;;;;25.35;22.73;;;20.50;99.90;;;;;;5097478;28;20232;-76
2023/03/23 10:55:09;;;;;;;22.83;20.20;;;20.50;99.90;;;;;;5095771;28;20201;-77
2023/03/23 10:57:39;;;;;;;26.25;23.15;;;20.60;99.90;;;;;;5094668;28;20196;-78
2023/03/23 11:00:08;;;;;;;26.55;21.90;;;20.60;99.90;;;;;;5094816;28;20841;-77
2023/03/23 11:02:41;;;;;;;26.10;22.02;;;20.70;99.90;;;;;;5096559;28;20208;-76
2023/03/23 11:05:19;;;;;;;26.27;23.52;;;21.10;99.90;;;;;;5093110;28;20203;-76
2023/03/23 11:07:53;;;;;;;26.75;24.00;;;21.00;99.90;;;;;;5095281;28;20293;-74
2023/03/23 11:10:25;;;;;;;26.80;24.00;;;21.10;99.90;;;;;;5094545;28;20563;-76
2023/03/23 11:12:53;;;;;;;22.48;20.13;;;21.10;99.90;;;;;;5093705;28;20262;-77
2023/03/23 11:15:30;;;;;;;21.15;19.05;;;21.30;99.90;;;;;;5096830;28;20740;-76
2023/03/23 11:17:59;;;;;;;24.73;21.02;;;21.90;99.90;;;;;;5094893;28;20205;-77
2023/03/23 11:20:29;;;;;;;26.33;23.15;;;22.30;99.90;;;;;;5108514;28;20251;-77
2023/03/23 11:22:56;;;;;;;26.98;24.10;;;22.20;99.90;;;;;;5096808;28;21013;-76
2023/03/23 11:25:26;;;;;;;28.15;25.25;;;22.10;99.90;;;;;;5096123;28;20204;-76
2023/03/23 11:27:54;;;;;;;25.33;22.63;;;21.90;99.90;;;;;;5095855;28;20258;-77
2023/03/23 11:30:26;;;;;;;23.50;21.10;;;21.70;99.90;;;;;;5096532;28;20285;-77
2023/03/23 11:32:55;;;;;;;24.92;22.10;;;21.50;99.90;;;;;;5089969;28;20212;-76
2023/03/23 11:35:26;;;;;;;25.27;22.60;;;21.60;99.90;;;;;;5094658;28;20201;-77
2023/03/23 11:37:56;;;;;;;23.60;21.17;;;21.70;99.90;;;;;;5092221;28;20325;-77
2023/03/23 11:40:27;;;;;;;28.02;25.15;;;21.80;99.90;;;;;;5091848;28;20868;-75
2023/03/23 11:43:00;;;;;;;24.60;22.10;;;21.80;99.90;;;;;;5092649;28;20288;-76
2023/03/23 11:45:35;;;;;;;21.92;19.73;;;21.80;99.90;;;;;;5086802;28;20198;-76
2023/03/23 11:48:14;;;;;;;25.67;21.65;;;21.80;99.90;;;;;;5088959;28;20203;-75
2023/03/23 11:50:50;;;;;;;23.33;21.00;;;22.00;99.90;;;;;;5090829;28;20213;-75
2023/03/23 11:53:32;;;;;;;19.98;17.80;;;21.90;99.90;;;;;;5090399;28;20224;-76
2023/03/23 11:56:10;;;;;;;22.08;18.67;;;21.90;99.90;;;;;;5093341;28;21992;-75
2023/03/23 11:58:37;;;;;;;20.55;18.45;;;22.10;99.90;;;;;;5085876;28;20240;-75
2023/03/23 12:01:10;;;;;;;24.30;19.42;;;21.60;99.90;;;;;;5091585;28;20202;-75
2023/03/23 12:03:57;;;;;;;20.05;18.02;;;21.20;99.90;;;;;;5089298;28;20221;-76
2023/03/23 12:06:33;;;;;;;20.42;18.33;;;21.20;99.90;;;;;;5087178;28;20208;-76
2023/03/23 12:09:10;;;;;;;21.15;18.20;;;21.30;99.90;;;;;;5089514;28;20228;-75
2023/03/23 12:11:45;;;;;;;23.30;20.90;;;21.30;99.90;;;;;;5090415;28;20216;-75
2023/03/23 12:14:19;;;;;;;18.77;16.77;;;21.20;99.90;;;;;;5095654;28;20196;-77
2023/03/23 12:16:56;;;;;;;20.05;17.98;;;21.30;99.90;;;;;;5092526;28;20609;-78
2023/03/23 12:19:45;;;;;;;18.52;16.55;;;21.20;99.90;;;;;;5109762;28;20912;-77
2023/03/23 12:22:23;;;;;;;17.52;15.70;;;21.20;99.90;;;;;;5090789;28;20229;-76
2023/03/23 12:24:59;;;;;;;17.77;15.88;;;21.50;99.90;;;;;;5093167;28;20869;-77
2023/03/23 12:27:36;;;;;;;21.05;18.50;;;21.80;99.90;;;;;;5096207;28;20596;-77
2023/03/23 12:30:15;;;;;;;20.88;16.17;;;21.60;99.90;;;;;;5095562;28;20670;-76
2023/03/23 12:32:56;;;;;;;22.00;18.15;;;21.20;99.90;;;;;;5094261;28;20499;-78
2023/03/23 12:35:33;;;;;;;21.70;17.77;;;21.20;99.90;;;;;;5095304;28;20216;-76
2023/03/23 12:38:24;;;;;;;17.83;15.20;;;21.00;99.90;;;;;;5091936;28;20826;-76
2023/03/23 12:41:09;;;;;;;13.82;12.40;;;20.90;99.90;;;;;;5094769;28;20205;-76
2023/03/23 12:43:45;;;;;;;15.35;12.40;;;21.50;99.90;;;;;;5093282;28;20329;-76